Time;durP1;ratioP1;P1;durP2;ratioP2;P2;SDS_P1;SDS_P2;PMS_P1;PMS_P2;Temp;Humidity;BMP_temperature;BMP_pressure;BME280_temperature;BME280_humidity;BME280_pressure;Samples;Min_cycle;Max_cycle;Signal;HPM_P1;HPM_P2
2023/04/27 00:00:37;;;;;;;16.23;7.50;;;;;;;5.41;83.95;101716.81;5013291;28;20037;-76
2023/04/27 00:03:04;;;;;;;18.15;7.85;;;;;;;5.37;83.99;101722.25;4986975;28;20034;-76
2023/04/27 00:05:34;;;;;;;23.02;7.38;;;;;;;5.33;84.13;101721.63;5000456;28;20044;-76
2023/04/27 00:08:00;;;;;;;18.98;8.18;;;;;;;5.28;84.09;101720.28;5000854;28;20045;-76
2023/04/27 00:10:25;;;;;;;14.93;7.47;;;;;;;5.22;84.72;101722.31;5010032;28;20037;-77
2023/04/27 00:12:51;;;;;;;12.93;7.53;;;;;;;5.15;84.58;101725.38;5004004;28;20041;-75
2023/04/27 00:15:16;;;;;;;15.80;7.78;;;;;;;5.10;85.25;101730.81;4984878;28;20030;-75
2023/04/27 00:17:42;;;;;;;15.15;7.18;;;;;;;5.04;85.87;101723.50;5000326;28;20030;-76
2023/04/27 00:20:10;;;;;;;17.63;7.60;;;;;;;4.98;86.29;101727.28;5001164;28;20038;-75
2023/04/27 00:22:38;;;;;;;16.60;8.70;;;;;;;4.94;86.86;101730.97;5004131;28;20048;-75
2023/04/27 00:25:05;;;;;;;15.50;7.45;;;;;;;4.87;87.23;101730.50;5000355;28;20128;-76
2023/04/27 00:27:30;;;;;;;17.80;8.65;;;;;;;4.86;87.27;101731.44;5005130;28;20083;-77
2023/04/27 00:29:56;;;;;;;17.80;9.13;;;;;;;4.86;87.26;101741.72;4976666;28;20046;-75
2023/04/27 00:32:21;;;;;;;15.30;8.10;;;;;;;4.86;87.70;101738.34;4997064;28;20176;-75
2023/04/27 00:34:48;;;;;;;15.38;8.73;;;;;;;4.83;87.24;101741.91;4984043;28;20054;-75
2023/04/27 00:37:13;;;;;;;16.10;7.55;;;;;;;4.78;87.90;101741.38;4988554;28;20038;-75
2023/04/27 00:39:39;;;;;;;14.68;8.02;;;;;;;4.77;88.36;101742.31;4986768;28;20030;-76
2023/04/27 00:42:05;;;;;;;18.40;7.45;;;;;;;4.76;89.15;101732.94;4989565;28;20100;-75
2023/04/27 00:44:30;;;;;;;17.58;8.52;;;;;;;4.77;89.26;101726.06;4989013;28;20424;-77
2023/04/27 00:46:57;;;;;;;15.95;8.40;;;;;;;4.77;88.80;101719.16;4973658;28;20049;-74
2023/04/27 00:49:25;;;;;;;19.50;8.70;;;;;;;4.77;89.58;101715.78;5003942;28;20030;-76
2023/04/27 00:51:50;;;;;;;15.43;7.70;;;;;;;4.75;89.38;101723.59;4985459;28;20080;-75
2023/04/27 00:54:18;;;;;;;16.08;7.85;;;;;;;4.71;89.06;101727.28;4989282;28;20684;-75
2023/04/27 00:56:46;;;;;;;17.73;7.78;;;;;;;4.68;89.45;101725.69;5003785;28;20081;-75
2023/04/27 00:59:15;;;;;;;18.98;8.35;;;;;;;4.66;89.55;101717.25;4974649;28;20030;-76
2023/04/27 01:01:40;;;;;;;15.63;8.48;;;;;;;4.63;89.48;101722.59;5000815;28;20030;-75
2023/04/27 01:04:06;;;;;;;16.60;8.10;;;;;;;4.60;89.74;101724.53;4988647;28;20065;-75
2023/04/27 01:06:31;;;;;;;17.23;8.82;;;;;;;4.58;89.74;101723.81;4971637;28;20032;-75
2023/04/27 01:08:57;;;;;;;17.50;8.45;;;;;;;4.57;89.46;101722.16;4990870;28;20038;-74
2023/04/27 01:11:22;;;;;;;13.52;7.50;;;;;;;4.55;90.06;101729.13;4978916;28;20022;-75
2023/04/27 01:13:48;;;;;;;19.85;8.88;;;;;;;4.53;89.97;101723.25;4986145;28;20041;-75
2023/04/27 01:16:13;;;;;;;17.83;7.85;;;;;;;4.52;90.52;101734.44;5001223;28;20031;-75
2023/04/27 01:18:41;;;;;;;16.38;8.13;;;;;;;4.51;90.29;101736.19;4990710;28;20029;-75
2023/04/27 01:21:07;;;;;;;20.23;8.57;;;;;;;4.48;90.69;101728.66;4973133;28;20037;-75
2023/04/27 01:23:32;;;;;;;19.55;8.82;;;;;;;4.45;90.22;101729.69;5003667;28;20108;-75
2023/04/27 01:25:58;;;;;;;18.35;9.25;;;;;;;4.42;90.23;101723.91;4988956;28;20038;-76
2023/04/27 01:28:23;;;;;;;16.33;8.02;;;;;;;4.39;90.24;101724.09;4988804;28;20041;-76
2023/04/27 01:30:49;;;;;;;19.52;8.45;;;;;;;4.37;90.22;101736.19;4991560;28;20065;-75
2023/04/27 01:33:14;;;;;;;13.38;8.05;;;;;;;4.34;90.69;101734.66;4986854;28;21397;-76
2023/04/27 01:35:40;;;;;;;18.02;8.45;;;;;;;4.29;90.30;101734.94;5005043;28;20451;-75
2023/04/27 01:38:05;;;;;;;18.58;8.93;;;;;;;4.28;90.30;101738.41;5004955;28;20045;-75
2023/04/27 01:40:31;;;;;;;14.88;8.43;;;;;;;4.25;90.66;101736.00;4987158;28;20026;-75
2023/04/27 01:42:56;;;;;;;17.50;9.07;;;;;;;4.16;90.21;101741.69;5004892;28;20080;-76
2023/04/27 01:45:22;;;;;;;16.63;8.63;;;;;;;4.11;90.63;101746.31;5003804;28;20495;-75
2023/04/27 01:47:50;;;;;;;15.07;8.52;;;;;;;4.08;90.75;101751.59;4984403;28;20026;-75
2023/04/27 01:50:19;;;;;;;16.52;8.57;;;;;;;4.03;91.05;101744.19;4997607;28;20026;-75
2023/04/27 01:52:44;;;;;;;19.48;9.32;;;;;;;3.99;90.80;101742.69;4987324;28;20178;-75
2023/04/27 01:55:10;;;;;;;16.75;7.90;;;;;;;3.94;91.08;101754.13;5005837;28;20030;-76
2023/04/27 01:57:36;;;;;;;20.05;8.60;;;;;;;3.87;90.98;101759.63;4991945;28;20026;-75
2023/04/27 02:00:03;;;;;;;19.98;10.25;;;;;;;3.86;91.27;101758.00;4970177;28;20385;-75
2023/04/27 02:02:46;;;;;;;15.70;8.30;;;;;;;3.83;91.48;101758.16;5005582;28;20076;-75
2023/04/27 02:05:11;;;;;;;16.05;8.10;;;;;;;3.78;91.62;101752.47;4989426;28;20484;-75
2023/04/27 02:07:37;;;;;;;20.60;8.07;;;;;;;3.72;91.72;101757.16;4990900;28;20025;-75
2023/04/27 02:10:02;;;;;;;21.15;8.50;;;;;;;3.64;91.83;101750.72;4986931;28;20511;-76
2023/04/27 02:12:28;;;;;;;17.35;9.57;;;;;;;3.61;91.83;101747.50;4998534;28;20037;-75
2023/04/27 02:14:53;;;;;;;16.98;8.63;;;;;;;3.56;92.26;101752.88;5003332;28;20519;-75
2023/04/27 02:17:19;;;;;;;17.15;8.13;;;;;;;3.53;92.02;101750.50;5010275;28;20034;-75
2023/04/27 02:19:44;;;;;;;16.00;8.32;;;;;;;3.50;92.32;101758.34;4987901;28;20591;-77
2023/04/27 02:22:10;;;;;;;18.92;8.52;;;;;;;3.48;92.40;101752.47;5000040;28;20041;-75
2023/04/27 02:24:35;;;;;;;17.40;8.43;;;;;;;3.47;92.58;101750.84;4988517;28;20030;-75
2023/04/27 02:27:02;;;;;;;17.05;7.75;;;;;;;3.47;92.53;101751.66;4992892;28;20030;-75
2023/04/27 02:29:31;;;;;;;14.98;7.85;;;;;;;3.46;92.75;101749.19;4990453;28;20034;-76
2023/04/27 02:31:56;;;;;;;15.50;7.43;;;;;;;3.44;92.65;101754.38;4991668;28;20080;-76
2023/04/27 02:34:22;;;;;;;16.98;7.65;;;;;;;3.43;92.41;101751.94;4979061;28;20042;-75
2023/04/27 02:36:47;;;;;;;15.50;7.72;;;;;;;3.41;92.88;101751.16;4988708;28;20033;-75
2023/04/27 02:39:13;;;;;;;16.88;8.05;;;;;;;3.39;93.00;101740.16;4990637;28;20095;-75
2023/04/27 02:41:38;;;;;;;16.08;7.15;;;;;;;3.36;92.83;101741.19;4990514;28;20053;-75
2023/04/27 02:44:04;;;;;;;13.73;7.60;;;;;;;3.35;92.46;101738.69;4990709;28;20267;-75
2023/04/27 02:46:29;;;;;;;16.23;7.80;;;;;;;3.32;92.83;101739.72;5008933;28;20033;-75
2023/04/27 02:48:55;;;;;;;16.88;7.10;;;;;;;3.27;92.48;101737.38;4988253;28;20765;-76
2023/04/27 02:51:22;;;;;;;13.70;7.63;;;;;;;3.24;92.82;101739.28;4989675;28;20030;-75
2023/04/27 02:53:48;;;;;;;14.00;7.03;;;;;;;3.21;92.91;101735.16;4982782;28;20054;-75
2023/04/27 02:56:13;;;;;;;15.93;7.07;;;;;;;3.19;93.20;101731.06;5004794;28;20780;-75
2023/04/27 02:58:39;;;;;;;17.55;7.63;;;;;;;3.17;93.40;101717.50;4991910;28;20093;-75
2023/04/27 03:01:05;;;;;;;16.25;7.22;;;;;;;3.14;93.19;101718.47;5008704;28;20033;-75
2023/04/27 03:03:30;;;;;;;17.63;7.63;;;;;;;3.10;93.21;101719.56;4990281;28;20049;-75
2023/04/27 03:05:56;;;;;;;15.63;7.35;;;;;;;3.07;93.69;101722.28;5005621;28;20030;-76
2023/04/27 03:08:21;;;;;;;16.95;7.35;;;;;;;3.03;93.40;101728.50;5006308;28;20038;-76
2023/04/27 03:10:47;;;;;;;16.65;7.93;;;;;;;2.96;94.15;101724.59;4988340;28;20033;-75
2023/04/27 03:13:14;;;;;;;15.25;7.50;;;;;;;2.90;94.18;101729.19;4989596;28;20049;-75
2023/04/27 03:15:39;;;;;;;17.05;7.63;;;;;;;2.86;94.50;101730.25;4992482;28;20026;-75
2023/04/27 03:18:05;;;;;;;15.95;7.93;;;;;;;2.80;94.83;101732.31;5002976;28;20041;-76
2023/04/27 03:20:30;;;;;;;13.77;7.57;;;;;;;2.72;95.12;101742.97;5002047;28;20030;-75
2023/04/27 03:22:56;;;;;;;15.07;7.85;;;;;;;2.69;95.68;101743.13;4990483;28;20040;-75
2023/04/27 03:25:21;;;;;;;16.08;8.40;;;;;;;2.65;96.06;101750.13;4972412;28;20033;-76
2023/04/27 03:27:47;;;;;;;15.95;8.18;;;;;;;2.61;96.15;101746.09;4986652;28;20135;-75
2023/04/27 03:30:13;;;;;;;18.83;8.38;;;;;;;2.59;96.16;101747.09;4970152;28;20030;-75
2023/04/27 03:32:38;;;;;;;16.17;7.43;;;;;;;2.55;96.26;101743.03;4985099;28;21658;-75
2023/04/27 03:35:04;;;;;;;19.48;7.60;;;;;;;2.53;96.21;101730.31;4973124;28;20048;-76
2023/04/27 03:37:30;;;;;;;19.08;8.25;;;;;;;2.51;96.37;101745.75;4971850;28;20481;-75
2023/04/27 03:39:56;;;;;;;18.20;8.30;;;;;;;2.51;96.32;101738.06;4981100;28;20034;-75
2023/04/27 03:42:21;;;;;;;24.30;8.70;;;;;;;2.52;96.40;101736.34;4987622;28;20034;-75
2023/04/27 03:44:48;;;;;;;16.92;8.52;;;;;;;2.51;96.14;101738.06;4982251;28;20041;-75
2023/04/27 03:47:14;;;;;;;17.83;8.77;;;;;;;2.52;96.10;101741.44;4986483;28;20034;-75
2023/04/27 03:49:40;;;;;;;15.98;8.10;;;;;;;2.52;96.07;101736.34;4983924;28;20038;-76
2023/04/27 03:52:06;;;;;;;16.58;8.30;;;;;;;2.50;96.05;101744.09;4979875;28;20402;-75
2023/04/27 03:54:33;;;;;;;15.55;8.05;;;;;;;2.46;96.15;101740.03;4973546;28;20463;-75
2023/04/27 03:57:01;;;;;;;18.38;8.85;;;;;;;2.40;96.14;101745.50;4987366;28;20037;-75
2023/04/27 03:59:28;;;;;;;16.52;7.10;;;;;;;2.33;96.21;101744.16;4976559;28;20095;-76
2023/04/27 04:01:54;;;;;;;16.40;8.05;;;;;;;2.24;96.36;101757.41;4992960;23;20073;-71
2023/04/27 04:04:20;;;;;;;21.45;7.85;;;;;;;2.18;97.11;101757.75;4999980;28;20046;-71
2023/04/27 04:06:45;;;;;;;16.75;7.55;;;;;;;2.14;97.22;101765.56;5001793;28;20064;-71
2023/04/27 04:09:11;;;;;;;19.45;8.65;;;;;;;2.13;97.62;101765.66;4988369;28;20038;-71
2023/04/27 04:11:37;;;;;;;19.13;8.60;;;;;;;2.13;97.61;101766.47;5001669;28;20034;-71
2023/04/27 04:14:05;;;;;;;18.38;8.32;;;;;;;2.13;97.40;101761.38;5002970;28;20094;-71
2023/04/27 04:16:32;;;;;;;20.88;9.25;;;;;;;2.15;97.70;101756.19;4999694;28;20025;-71
2023/04/27 04:18:57;;;;;;;19.30;8.73;;;;;;;2.13;97.22;101761.38;5002522;28;20067;-71
2023/04/27 04:21:23;;;;;;;20.50;8.50;;;;;;;2.11;97.29;101764.88;4987699;28;20022;-71
2023/04/27 04:23:48;;;;;;;20.15;8.63;;;;;;;2.09;97.29;101767.56;5003777;28;20459;-71
2023/04/27 04:26:14;;;;;;;20.48;9.07;;;;;;;2.08;97.10;101776.13;4984745;28;20057;-71
2023/04/27 04:28:40;;;;;;;18.15;8.38;;;;;;;2.09;97.28;101770.09;5003327;28;20115;-70
2023/04/27 04:31:07;;;;;;;23.85;8.88;;;;;;;2.09;97.56;101766.69;4986030;28;20211;-71
2023/04/27 04:33:32;;;;;;;18.63;8.43;;;;;;;2.09;97.16;101772.66;4986724;28;20399;-71
2023/04/27 04:35:58;;;;;;;19.80;8.68;;;;;;;2.08;97.23;101773.56;4998820;28;20068;-71
2023/04/27 04:38:23;;;;;;;18.02;8.65;;;;;;;2.04;97.33;101777.19;5003082;28;20577;-71
2023/04/27 04:40:51;;;;;;;18.98;8.68;;;;;;;2.04;97.60;101773.81;5003667;28;20626;-70
2023/04/27 04:43:17;;;;;;;16.70;9.00;;;;;;;2.04;97.94;101777.19;5014080;28;20030;-71
2023/04/27 04:45:43;;;;;;;19.25;8.65;;;;;;;2.06;98.30;101775.38;5001887;28;20037;-71
2023/04/27 04:48:13;;;;;;;20.92;10.27;;;;;;;2.08;98.15;101786.34;5000120;28;20123;-71
2023/04/27 04:50:40;;;;;;;20.55;8.63;;;;;;;2.09;98.29;101785.47;4989200;28;20026;-71
2023/04/27 04:53:06;;;;;;;20.08;9.25;;;;;;;2.12;98.35;101787.84;4987500;28;20038;-71
2023/04/27 04:55:32;;;;;;;17.48;8.65;;;;;;;2.14;98.27;101785.22;5003906;28;20041;-71
2023/04/27 04:57:57;;;;;;;22.88;9.52;;;;;;;2.16;98.46;101783.41;5001340;28;20045;-71
2023/04/27 05:00:23;;;;;;;16.58;8.38;;;;;;;2.18;98.59;101784.16;4986449;28;20503;-71
2023/04/27 05:02:48;;;;;;;20.80;8.73;;;;;;;2.21;98.77;101794.25;5000464;28;20036;-71
2023/04/27 05:05:14;;;;;;;19.70;8.93;;;;;;;2.23;98.67;101789.88;5004476;28;20038;-71
2023/04/27 05:07:40;;;;;;;23.10;9.05;;;;;;;2.27;98.85;101795.66;4998306;28;20037;-71
2023/04/27 05:10:06;;;;;;;19.02;9.02;;;;;;;2.28;98.73;101790.47;5002224;28;20041;-71
2023/04/27 05:12:32;;;;;;;17.00;9.07;;;;;;;2.29;98.97;101794.66;5002613;28;20510;-71
2023/04/27 05:14:57;;;;;;;19.10;8.98;;;;;;;2.33;99.00;101793.59;5003830;28;20042;-71
2023/04/27 05:17:22;;;;;;;21.60;9.10;;;;;;;2.38;99.28;101790.00;4999682;28;20045;-71
2023/04/27 05:19:48;;;;;;;21.38;9.57;;;;;;;2.41;99.49;101787.28;5002612;28;20037;-71
2023/04/27 05:22:13;;;;;;;20.45;10.02;;;;;;;2.45;99.45;101789.63;5004113;28;20037;-71
2023/04/27 05:24:39;;;;;;;17.92;9.45;;;;;;;2.51;99.91;101796.16;4986118;28;20058;-71
2023/04/27 05:27:05;;;;;;;20.42;9.23;;;;;;;2.57;100.00;101806.06;5002779;28;20048;-71
2023/04/27 05:29:30;;;;;;;20.65;9.52;;;;;;;2.62;99.68;101801.53;5002887;28;20454;-70
2023/04/27 05:31:56;;;;;;;23.23;10.48;;;;;;;2.68;99.71;101798.66;4998490;28;20030;-71
2023/04/27 05:34:21;;;;;;;20.83;8.73;;;;;;;2.76;100.00;101805.13;5002357;28;20038;-71
2023/04/27 05:36:47;;;;;;;23.80;10.30;;;;;;;2.86;100.00;101812.25;5007193;28;20400;-71
2023/04/27 05:39:12;;;;;;;23.23;9.50;;;;;;;2.97;100.00;101810.84;5001878;28;20069;-71
2023/04/27 05:41:38;;;;;;;24.48;9.02;;;;;;;3.12;99.96;101804.88;5003572;28;20030;-71
2023/04/27 05:44:04;;;;;;;18.13;8.88;;;;;;;3.21;99.14;101813.81;4997173;28;20026;-71
2023/04/27 05:46:29;;;;;;;24.25;10.68;;;;;;;3.30;98.35;101805.63;4978692;28;20037;-69
2023/04/27 05:48:55;;;;;;;23.73;10.05;;;;;;;3.41;98.14;101805.88;5001744;28;20037;-71
2023/04/27 05:51:20;;;;;;;25.55;9.23;;;;;;;3.53;97.43;101809.47;5000720;28;20038;-71
2023/04/27 05:53:46;;;;;;;25.02;10.65;;;;;;;3.77;96.57;101811.56;4983750;28;20034;-70
2023/04/27 05:56:11;;;;;;;18.70;9.38;;;;;;;4.05;94.78;101816.78;4986760;28;20384;-71
2023/04/27 05:58:37;;;;;;;25.33;9.32;;;;;;;4.37;93.52;101818.38;5000776;28;20037;-71
2023/04/27 06:01:02;;;;;;;20.83;10.18;;;;;;;4.62;92.36;101818.56;4999385;28;20038;-71
2023/04/27 06:03:29;;;;;;;24.55;9.10;;;;;;;4.91;90.96;101818.53;4999312;28;20034;-71
2023/04/27 06:05:59;;;;;;;22.05;9.82;;;;;;;5.25;88.26;101816.44;5004420;28;20547;-70
2023/04/27 06:08:25;;;;;;;18.98;9.50;;;;;;;5.43;86.54;101814.47;5002957;28;20042;-71
2023/04/27 06:10:51;;;;;;;21.58;9.27;;;;;;;5.47;86.21;101810.78;4985613;28;20045;-70
2023/04/27 06:13:17;;;;;;;14.50;8.00;;;;;;;5.70;85.54;101813.63;5017638;28;20030;-70
2023/04/27 06:15:43;;;;;;;21.27;8.32;;;;;;;5.92;85.39;101807.91;5003443;28;20045;-71
2023/04/27 06:18:09;;;;;;;17.25;8.50;;;;;;;6.04;83.98;101810.50;4980838;28;20041;-71
2023/04/27 06:20:35;;;;;;;17.75;8.95;;;;;;;6.09;83.53;101809.41;5001614;28;20091;-71
2023/04/27 06:23:01;;;;;;;17.88;8.15;;;;;;;6.14;81.80;101813.31;5002234;28;20602;-71
2023/04/27 06:25:27;;;;;;;23.73;8.80;;;;;;;6.08;81.41;101802.59;4985946;28;20044;-71
2023/04/27 06:27:54;;;;;;;17.95;8.52;;;;;;;6.13;80.98;101806.50;5003485;28;20037;-70
2023/04/27 06:30:19;;;;;;;18.92;8.45;;;;;;;6.04;80.49;101804.53;4997552;28;20045;-70
2023/04/27 06:32:44;;;;;;;18.20;8.68;;;;;;;5.84;81.58;101808.41;4983425;28;20041;-70
2023/04/27 06:35:10;;;;;;;22.73;10.05;;;;;;;5.81;83.05;101814.56;4987706;28;20029;-71
2023/04/27 06:37:35;;;;;;;21.67;9.00;;;;;;;5.69;83.86;101809.38;5003791;28;20119;-71
2023/04/27 06:40:02;;;;;;;19.33;8.18;;;;;;;5.61;84.77;101812.44;5001201;28;20467;-71
2023/04/27 06:42:28;;;;;;;19.95;8.25;;;;;;;5.66;84.63;101810.41;4986520;28;20037;-71
2023/04/27 06:44:57;;;;;;;24.63;10.57;;;;;;;5.80;85.24;101820.66;5000448;28;20033;-71
2023/04/27 06:47:23;;;;;;;18.60;8.40;;;;;;;5.93;82.96;101818.06;5002337;28;20041;-71
2023/04/27 06:49:48;;;;;;;19.45;8.00;;;;;;;6.11;82.25;101817.84;4982541;28;20093;-71
2023/04/27 06:52:14;;;;;;;18.83;8.85;;;;;;;6.27;81.71;101818.44;5003359;28;20108;-71
2023/04/27 06:54:39;;;;;;;20.23;8.57;;;;;;;6.57;80.80;101807.00;5002064;28;20038;-71
2023/04/27 06:57:05;;;;;;;22.05;9.80;;;;;;;6.69;79.24;101811.31;5005258;28;20133;-71
2023/04/27 06:59:31;;;;;;;19.77;8.25;;;;;;;7.04;79.21;101809.78;5002065;28;20458;-71
2023/04/27 07:01:56;;;;;;;25.52;8.77;;;;;;;7.34;78.21;101811.94;5006523;28;20042;-71
2023/04/27 07:04:22;;;;;;;23.70;8.43;;;;;;;7.91;75.62;101808.63;5005101;28;20046;-71
2023/04/27 07:06:48;;;;;;;21.00;7.72;;;;;;;8.66;71.87;101801.31;5003838;28;20033;-71
2023/04/27 07:09:13;;;;;;;19.38;7.38;;;;;;;9.57;69.04;101805.31;5003799;28;20041;-68
2023/04/27 07:11:39;;;;;;;18.17;7.88;;;;;;;9.99;66.47;101797.53;4988159;28;20088;-69
2023/04/27 07:14:04;;;;;;;19.73;7.72;;;;;;;10.02;65.72;101793.84;4990933;28;20040;-68
2023/04/27 07:16:30;;;;;;;17.95;8.38;;;;;;;10.07;63.62;101791.72;5006333;28;20042;-68
2023/04/27 07:18:55;;;;;;;22.13;8.30;;;;;;;10.32;62.51;101793.91;5003137;28;20056;-69
2023/04/27 07:21:21;;;;;;;15.63;7.13;;;;;;;10.19;61.77;101792.44;4987816;28;20038;-69
2023/04/27 07:23:46;;;;;;;17.92;7.75;;;;;;;10.00;63.05;101803.53;4999867;28;20447;-69
2023/04/27 07:26:12;;;;;;;22.83;7.68;;;;;;;10.44;61.55;101799.00;5005567;28;20079;-70
2023/04/27 07:28:38;;;;;;;19.65;7.13;;;;;;;10.73;59.74;101799.09;5004155;28;20160;-68
2023/04/27 07:31:05;;;;;;;15.20;6.85;;;;;;;11.21;59.26;101789.75;5004190;28;20048;-69
2023/04/27 07:33:31;;;;;;;18.08;6.40;;;;;;;11.26;56.90;101795.34;5003925;28;20038;-69
2023/04/27 07:35:56;;;;;;;12.00;5.78;;;;;;;11.39;56.35;101793.28;5020128;28;20038;-69
2023/04/27 07:38:23;;;;;;;12.85;6.50;;;;;;;11.82;56.24;101797.22;5004162;28;20033;-69
2023/04/27 07:40:48;;;;;;;15.95;7.15;;;;;;;11.83;55.15;101795.47;5003963;28;20376;-69
2023/04/27 07:43:14;;;;;;;15.55;6.75;;;;;;;12.30;53.97;101794.66;5017337;28;20096;-69
2023/04/27 07:45:41;;;;;;;11.30;6.72;;;;;;;11.96;52.83;101785.63;5003946;28;20238;-69
2023/04/27 07:48:06;;;;;;;13.88;6.35;;;;;;;12.12;54.35;101790.22;5003906;28;20043;-69
2023/04/27 07:50:32;;;;;;;14.38;6.40;;;;;;;12.16;53.60;101791.56;4986503;28;20037;-69
2023/04/27 07:52:58;;;;;;;14.80;6.35;;;;;;;12.08;54.26;101787.06;5002783;28;20174;-69
2023/04/27 07:55:25;;;;;;;17.88;6.30;;;;;;;12.31;53.19;101784.13;5005301;28;20042;-69
2023/04/27 07:57:52;;;;;;;18.48;6.30;;;;;;;12.84;52.06;101782.59;5005713;28;20096;-69
2023/04/27 08:00:18;;;;;;;16.30;6.30;;;;;;;12.91;51.50;101778.44;5007713;28;20135;-69
2023/04/27 08:02:44;;;;;;;16.67;5.82;;;;;;;13.23;50.88;101767.50;4999741;28;20196;-70
2023/04/27 08:05:09;;;;;;;13.40;6.70;;;;;;;13.31;50.79;101776.41;5006902;28;20030;-69
2023/04/27 08:07:35;;;;;;;14.68;6.35;;;;;;;12.92;51.67;101779.25;5006690;28;20026;-69
2023/04/27 08:10:00;;;;;;;13.75;6.50;;;;;;;13.01;49.20;101776.59;5005015;28;20053;-70
2023/04/27 08:12:26;;;;;;;10.13;5.22;;;;;;;13.11;50.33;101771.34;5002816;28;20582;-69
2023/04/27 08:14:51;;;;;;;17.00;6.07;;;;;;;12.74;49.77;101769.66;5003936;28;20060;-69
2023/04/27 08:17:18;;;;;;;14.70;6.30;;;;;;;13.07;49.46;101771.75;5002895;28;20053;-69
2023/04/27 08:19:44;;;;;;;17.17;6.07;;;;;;;13.08;49.25;101763.81;5004927;28;20526;-69
2023/04/27 08:22:10;;;;;;;15.75;6.53;;;;;;;13.01;48.83;101762.75;5003625;28;20041;-69
2023/04/27 08:24:36;;;;;;;11.48;5.40;;;;;;;13.04;48.44;101754.66;5002013;28;20053;-69
2023/04/27 08:27:02;;;;;;;15.63;6.28;;;;;;;13.48;47.24;101754.72;5004670;28;20034;-69
2023/04/27 08:29:28;;;;;;;11.07;5.45;;;;;;;13.39;47.05;101747.81;5017340;28;20474;-69
2023/04/27 08:31:53;;;;;;;12.48;5.80;;;;;;;13.82;47.63;101751.34;5002649;28;20038;-69
2023/04/27 08:34:19;;;;;;;12.20;5.90;;;;;;;13.73;46.66;101757.47;5005359;28;20432;-69
2023/04/27 08:36:44;;;;;;;12.93;5.47;;;;;;;13.75;45.05;101753.78;4999357;28;20511;-69
2023/04/27 08:39:10;;;;;;;10.65;5.22;;;;;;;13.70;44.98;101757.81;5002253;28;21929;-70
2023/04/27 08:41:40;;;;;;;10.80;5.38;;;;;;;14.11;45.87;101755.41;4995388;28;20022;-69
2023/04/27 08:44:06;;;;;;;10.38;5.50;;;;;;;14.13;44.96;101751.69;5000302;28;20030;-69
2023/04/27 08:46:32;;;;;;;9.45;5.35;;;;;;;14.29;46.05;101752.72;5000663;28;20168;-69
2023/04/27 08:48:58;;;;;;;11.63;5.57;;;;;;;14.14;44.91;101752.50;5002978;28;20033;-69
2023/04/27 08:51:26;;;;;;;14.40;6.10;;;;;;;14.28;43.29;101749.31;4988176;28;20042;-69
2023/04/27 08:53:54;;;;;;;11.45;5.85;;;;;;;13.42;45.08;101743.09;4986880;28;20038;-69
2023/04/27 08:56:25;;;;;;;15.40;5.45;;;;;;;13.53;46.74;101738.66;5003239;28;20061;-69
2023/04/27 08:58:51;;;;;;;13.93;5.32;;;;;;;13.95;45.76;101741.31;5001351;28;20045;-69
2023/04/27 09:01:17;;;;;;;15.57;5.65;;;;;;;14.25;45.74;101730.53;5005777;28;20120;-69
2023/04/27 09:03:47;;;;;;;8.85;4.75;;;;;;;14.56;44.51;101736.00;5003981;28;20057;-69
2023/04/27 09:06:13;;;;;;;9.55;4.45;;;;;;;14.67;43.04;101729.69;5004683;28;20038;-69
2023/04/27 09:08:42;;;;;;;10.50;4.80;;;;;;;14.90;42.16;101730.72;5001648;28;20395;-69
2023/04/27 09:11:07;;;;;;;9.65;4.38;;;;;;;14.97;41.84;101729.13;5000365;28;20051;-69
2023/04/27 09:13:37;;;;;;;8.15;4.57;;;;;;;14.41;43.37;101731.41;5003051;28;20037;-69
2023/04/27 09:16:03;;;;;;;9.50;4.30;;;;;;;14.54;43.57;101732.75;5004246;28;20492;-69
2023/04/27 09:18:32;;;;;;;7.85;4.07;;;;;;;14.48;41.08;101730.78;5004251;28;20030;-69
2023/04/27 09:20:58;;;;;;;10.15;4.63;;;;;;;14.60;42.96;101734.75;5003314;28;20124;-69
2023/04/27 09:23:31;;;;;;;10.60;4.72;;;;;;;14.76;41.68;101732.16;4985816;28;20559;-69
2023/04/27 09:25:58;;;;;;;14.50;4.95;;;;;;;14.38;43.30;101718.69;5002191;28;20444;-69
2023/04/27 09:28:26;;;;;;;7.53;4.35;;;;;;;14.17;43.87;101729.53;4984020;28;20042;-69
2023/04/27 09:30:53;;;;;;;8.57;4.53;;;;;;;13.91;42.14;101721.75;5016440;28;20033;-69
2023/04/27 09:33:27;;;;;;;11.38;4.75;;;;;;;14.26;45.23;101727.78;5000582;28;20122;-69
2023/04/27 09:35:53;;;;;;;13.70;4.75;;;;;;;14.73;41.68;101731.66;5003236;28;20073;-69
2023/04/27 09:38:20;;;;;;;11.57;4.00;;;;;;;14.88;41.29;101737.06;4982166;28;20108;-69
2023/04/27 09:40:47;;;;;;;8.52;3.33;;;;;;;14.55;40.20;101718.72;4995271;28;20411;-69
2023/04/27 09:43:13;;;;;;;8.18;4.65;;;;;;;14.37;39.90;101717.06;4984634;28;20046;-69
2023/04/27 09:45:39;;;;;;;10.52;4.70;;;;;;;14.52;40.42;101716.44;5016331;28;20050;-70
2023/04/27 09:48:08;;;;;;;11.40;4.97;;;;;;;14.43;40.46;101713.00;4981011;28;20172;-69
2023/04/27 09:50:39;;;;;;;13.38;4.85;;;;;;;14.43;42.22;101712.16;5002611;28;20069;-69
2023/04/27 09:53:07;;;;;;;8.73;4.47;;;;;;;13.91;40.38;101711.31;5004421;28;20480;-69
2023/04/27 09:55:41;;;;;;;14.75;4.38;;;;;;;14.50;41.21;101707.94;5000754;28;20088;-69
2023/04/27 09:58:25;;;;;;;9.98;3.70;;;;;;;14.45;40.41;101708.44;5001405;28;20038;-69
2023/04/27 10:00:58;;;;;;;11.80;4.70;;;;;;;14.24;40.60;101708.03;5001232;28;20639;-69
2023/04/27 10:03:31;;;;;;;11.35;4.38;;;;;;;14.40;39.89;101710.69;4997195;28;20469;-69
2023/04/27 10:06:14;;;;;;;11.77;4.72;;;;;;;14.84;40.62;101707.84;5002219;28;20679;-69
2023/04/27 10:08:40;;;;;;;9.63;4.53;;;;;;;15.38;39.01;101699.53;5005983;23;20077;-74
2023/04/27 10:11:14;;;;;;;10.80;4.80;;;;;;;15.30;39.58;101700.34;5020461;28;20164;-74
2023/04/27 10:13:51;;;;;;;8.55;4.60;;;;;;;14.86;37.85;101690.25;5002416;28;20048;-74
2023/04/27 10:16:17;;;;;;;8.40;3.92;;;;;;;14.91;37.90;101687.97;5010063;28;20112;-74
2023/04/27 10:18:53;;;;;;;6.05;3.30;;;;;;;15.09;37.99;101679.16;5003679;28;20492;-74
2023/04/27 10:21:19;;;;;;;7.75;4.78;;;;;;;14.99;37.76;101682.75;5004172;28;20046;-74
2023/04/27 10:23:50;;;;;;;12.63;5.15;;;;;;;14.78;38.91;101683.22;5005249;28;20048;-74
2023/04/27 10:26:25;;;;;;;9.45;4.22;;;;;;;15.19;39.22;101674.56;5006575;28;20116;-74
2023/04/27 10:29:04;;;;;;;7.32;4.18;;;;;;;15.36;38.85;101681.41;5001547;28;20042;-74
2023/04/27 10:31:30;;;;;;;11.18;4.47;;;;;;;15.41;37.21;101674.84;4986676;28;20132;-74
2023/04/27 10:34:07;;;;;;;10.10;4.63;;;;;;;15.84;37.48;101665.78;5003879;28;20030;-74
2023/04/27 10:36:37;;;;;;;8.07;3.95;;;;;;;15.68;36.24;101671.84;5010184;28;20041;-74
2023/04/27 10:39:26;;;;;;;7.20;3.85;;;;;;;15.50;39.24;101668.63;5001208;28;20030;-74
2023/04/27 10:41:53;;;;;;;8.88;3.78;;;;;;;14.99;37.38;101679.31;5007350;28;20472;-74
2023/04/27 10:44:27;;;;;;;7.65;3.78;;;;;;;14.76;38.21;101685.16;5001525;28;20048;-73
2023/04/27 10:46:54;;;;;;;5.82;4.00;;;;;;;14.72;36.30;101668.19;5010659;28;20038;-74
2023/04/27 10:49:20;;;;;;;7.65;3.90;;;;;;;14.75;38.15;101675.72;4993456;28;20419;-74
2023/04/27 10:51:48;;;;;;;8.07;3.95;;;;;;;14.71;35.52;101663.97;5010481;28;20034;-75
2023/04/27 10:54:13;;;;;;;9.65;4.78;;;;;;;14.75;38.07;101672.31;4990896;28;20475;-74
2023/04/27 10:56:40;;;;;;;9.48;4.60;;;;;;;14.69;38.48;101678.16;5002736;28;20030;-74
2023/04/27 10:59:07;;;;;;;10.77;4.68;;;;;;;14.53;38.23;101684.16;5020517;28;20415;-74
2023/04/27 11:01:32;;;;;;;8.23;4.75;;;;;;;14.85;37.22;101679.97;5010706;28;20137;-74
2023/04/27 11:03:59;;;;;;;8.98;4.28;;;;;;;15.06;36.82;101674.25;4991291;28;20117;-74
2023/04/27 11:06:27;;;;;;;13.18;5.05;;;;;;;15.08;36.08;101677.50;5023457;28;20038;-74
2023/04/27 11:08:53;;;;;;;10.80;4.82;;;;;;;15.24;38.14;101674.06;5010095;28;20030;-74
2023/04/27 11:11:19;;;;;;;10.55;4.70;;;;;;;15.57;36.89;101662.56;5008638;28;20034;-74
2023/04/27 11:13:48;;;;;;;8.52;3.85;;;;;;;15.50;37.22;101666.00;5004229;28;20654;-74
2023/04/27 11:16:15;;;;;;;7.80;4.72;;;;;;;15.05;36.20;101675.22;5008519;28;20132;-74
2023/04/27 11:18:40;;;;;;;8.73;3.92;;;;;;;15.13;35.59;101662.97;4987451;28;20037;-74